Terminal Aerodrome Forecast
Issued by NWS

Home | Current Version | Previous Version | Text Only | Print | Product List | Glossary On
Versions: 1 2 3 4 5 6 7 8 9 10 11 12 13 14 15 16 17 18 19
000
FTAK31 PAJN 210500
TAFAGY
TAF
PAGY 210529Z 2106/2206 21005KT 3SM BR OVC007
     FM211100 VRB03KT 5SM BR BKN015 OVC050
     FM211400 VRB04KT P6SM -RA BKN020 OVC035
     FM211700 00000KT 5SM -RA BR FEW006 BKN025 OVC040
     FM212300 VRB05KT 6SM -RA BR FEW006 BKN025 OVC040
     FM220200 21012KT P6SM -RA SCT025 OVC035
      AMD LTD TO CLD VIS AND WIND=

USA.gov is the U.S. government's official web portal to all federal, state and local government web resources and services.